AAL127 KSAN-KSLC
Flight info
| Callsign | AAL127 |
|---|---|
| Flight time | 1h 40m |
| Altitude | 33000 |
| Route | ZZOOO4 MTBAL CADEZ HAKMN Q73 LAKRR MLF QWENN6 |
| Aircraft | A319/M-SDE3FGHIRWY/LB1 |
Departure
| Time | 2026-04-23 03:47 |
|---|---|
| Airport | San Diego International Airport (KSAN) |
Arrival
| Time | 2026-04-23 05:28 |
|---|---|
| Airport | Salt Lake City International Airport (KSLC) |
| Time | Latitude | Longitude | Altitude | Speed | Heading |
|---|---|---|---|---|---|
| 2026-04-23 03:01 | 32.73341 | -117.19781 | 20 ft | 0 kts | 283° |
| 2026-04-23 03:33 | 32.73337 | -117.19763 | 20 ft | 4 kts | 287° |
| 2026-04-23 03:33 | 32.73327 | -117.19736 | 23 ft | 4 kts | 323° |
| 2026-04-23 03:33 | 32.73314 | -117.19730 | 20 ft | 0 kts | 19° |
| 2026-04-23 03:39 | 32.73317 | -117.19729 | 21 ft | 1 kts | 19° |
| 2026-04-23 03:39 | 32.73330 | -117.19724 | 23 ft | 3 kts | 19° |
| 2026-04-23 03:39 | 32.73350 | -117.19714 | 21 ft | 4 kts | 22° |
| 2026-04-23 03:39 | 32.73377 | -117.19702 | 21 ft | 4 kts | 19° |
| 2026-04-23 03:40 | 32.73401 | -117.19688 | 22 ft | 4 kts | 33° |
| 2026-04-23 03:40 | 32.73416 | -117.19662 | 23 ft | 4 kts | 73° |
| 2026-04-23 03:40 | 32.73414 | -117.19626 | 23 ft | 5 kts | 101° |
| 2026-04-23 03:40 | 32.73402 | -117.19579 | 26 ft | 7 kts | 107° |
| 2026-04-23 03:41 | 32.73387 | -117.19519 | 24 ft | 8 kts | 107° |
| 2026-04-23 03:41 | 32.73369 | -117.19442 | 24 ft | 11 kts | 101° |
| 2026-04-23 03:41 | 32.73345 | -117.19340 | 21 ft | 15 kts | 106° |
| 2026-04-23 03:41 | 32.73313 | -117.19212 | 20 ft | 17 kts | 106° |
| 2026-04-23 03:42 | 32.73280 | -117.19073 | 23 ft | 17 kts | 106° |
| 2026-04-23 03:42 | 32.73253 | -117.18966 | 23 ft | 12 kts | 106° |
| 2026-04-23 03:42 | 32.73229 | -117.18863 | 23 ft | 14 kts | 105° |
| 2026-04-23 03:42 | 32.73201 | -117.18750 | 26 ft | 15 kts | 106° |
| 2026-04-23 03:43 | 32.73171 | -117.18626 | 25 ft | 17 kts | 106° |
| 2026-04-23 03:43 | 32.73145 | -117.18517 | 21 ft | 15 kts | 106° |
| 2026-04-23 03:43 | 32.73115 | -117.18392 | 21 ft | 17 kts | 106° |
| 2026-04-23 03:43 | 32.73083 | -117.18258 | 20 ft | 12 kts | 106° |
| 2026-04-23 03:44 | 32.73055 | -117.18146 | 20 ft | 16 kts | 106° |
| 2026-04-23 03:44 | 32.73022 | -117.18011 | 18 ft | 18 kts | 106° |
| 2026-04-23 03:44 | 32.72986 | -117.17860 | 16 ft | 20 kts | 106° |
| 2026-04-23 03:44 | 32.72950 | -117.17709 | 17 ft | 2 kts | 102° |
| 2026-04-23 03:45 | 32.72949 | -117.17691 | 17 ft | 2 kts | 91° |
| 2026-04-23 03:45 | 32.72953 | -117.17675 | 17 ft | 2 kts | 77° |
| 2026-04-23 03:45 | 32.72955 | -117.17659 | 18 ft | 2 kts | 77° |
| 2026-04-23 03:45 | 32.72958 | -117.17648 | 21 ft | 1 kts | 75° |
| 2026-04-23 03:46 | 32.72965 | -117.17616 | 19 ft | 18 kts | 75° |
| 2026-04-23 03:46 | 32.73023 | -117.17545 | 21 ft | 5 kts | 326° |
| 2026-04-23 03:46 | 32.73024 | -117.17591 | 20 ft | 8 kts | 267° |
| 2026-04-23 03:46 | 32.73075 | -117.17805 | 21 ft | 65 kts | 286° |
| 2026-04-23 03:47 | 32.73269 | -117.18618 | 26 ft | 136 kts | 286° |
| 2026-04-23 03:47 | 32.73566 | -117.19798 | 328 ft | 166 kts | 287° |
| 2026-04-23 03:47 | 32.73957 | -117.21203 | 824 ft | 190 kts | 289° |
| 2026-04-23 03:47 | 32.74425 | -117.22768 | 1368 ft | 216 kts | 289° |
| 2026-04-23 03:48 | 32.74934 | -117.24599 | 1807 ft | 247 kts | 286° |
| 2026-04-23 03:48 | 32.75358 | -117.26460 | 2969 ft | 241 kts | 284° |
| 2026-04-23 03:48 | 32.75767 | -117.28386 | 4110 ft | 241 kts | 284° |
| 2026-04-23 03:48 | 32.76185 | -117.30325 | 5139 ft | 244 kts | 284° |
| 2026-04-23 03:49 | 32.76572 | -117.32319 | 5646 ft | 250 kts | 275° |
| 2026-04-23 03:49 | 32.76342 | -117.34352 | 5833 ft | 249 kts | 248° |
| 2026-04-23 03:49 | 32.75380 | -117.36063 | 6153 ft | 257 kts | 222° |
| 2026-04-23 03:49 | 32.73887 | -117.37131 | 7207 ft | 256 kts | 199° |
| 2026-04-23 03:50 | 32.72120 | -117.37390 | 8223 ft | 260 kts | 173° |
| 2026-04-23 03:50 | 32.70400 | -117.36662 | 9194 ft | 264 kts | 146° |
| 2026-04-23 03:50 | 32.69130 | -117.35081 | 10120 ft | 268 kts | 123° |
| 2026-04-23 03:50 | 32.68101 | -117.33259 | 11048 ft | 271 kts | 123° |
| 2026-04-23 03:51 | 32.67041 | -117.31389 | 11939 ft | 275 kts | 124° |
| 2026-04-23 03:51 | 32.65962 | -117.29495 | 12819 ft | 278 kts | 124° |
| 2026-04-23 03:51 | 32.64872 | -117.27591 | 13671 ft | 282 kts | 124° |
| 2026-04-23 03:51 | 32.63789 | -117.25626 | 14486 ft | 286 kts | 118° |
| 2026-04-23 03:52 | 32.63073 | -117.23412 | 15203 ft | 295 kts | 103° |
| 2026-04-23 03:52 | 32.62780 | -117.20909 | 15473 ft | 318 kts | 95° |
| 2026-04-23 03:52 | 32.62549 | -117.18215 | 15840 ft | 336 kts | 96° |
| 2026-04-23 03:52 | 32.62307 | -117.15430 | 16497 ft | 343 kts | 96° |
| 2026-04-23 03:53 | 32.62099 | -117.12596 | 17205 ft | 347 kts | 91° |
| 2026-04-23 03:53 | 32.62304 | -117.09726 | 17899 ft | 351 kts | 78° |
| 2026-04-23 03:53 | 32.63011 | -117.06942 | 18607 ft | 355 kts | 68° |
| 2026-04-23 03:53 | 32.63915 | -117.04206 | 19299 ft | 358 kts | 68° |
| 2026-04-23 03:54 | 32.64822 | -117.01443 | 19971 ft | 362 kts | 69° |
| 2026-04-23 03:54 | 32.65738 | -116.98640 | 20628 ft | 366 kts | 69° |
| 2026-04-23 03:54 | 32.66465 | -116.95737 | 21249 ft | 370 kts | 79° |
| 2026-04-23 03:54 | 32.66717 | -116.92688 | 21867 ft | 374 kts | 89° |
| 2026-04-23 03:55 | 32.66772 | -116.89590 | 22483 ft | 377 kts | 89° |
| 2026-04-23 03:55 | 32.66838 | -116.86457 | 23075 ft | 381 kts | 88° |
| 2026-04-23 03:55 | 32.66932 | -116.83305 | 23662 ft | 385 kts | 85° |
| 2026-04-23 03:55 | 32.67469 | -116.80184 | 24232 ft | 388 kts | 71° |
| 2026-04-23 03:56 | 32.68627 | -116.77286 | 24774 ft | 392 kts | 57° |
| 2026-04-23 03:56 | 32.70357 | -116.74764 | 25298 ft | 396 kts | 43° |
| 2026-04-23 03:56 | 32.72564 | -116.72790 | 25833 ft | 400 kts | 29° |
| 2026-04-23 03:56 | 32.75100 | -116.71416 | 26339 ft | 403 kts | 21° |
| 2026-04-23 03:57 | 32.77709 | -116.70150 | 26873 ft | 406 kts | 22° |
| 2026-04-23 03:57 | 32.80331 | -116.68873 | 27369 ft | 409 kts | 22° |
| 2026-04-23 03:57 | 32.82974 | -116.67580 | 27845 ft | 412 kts | 22° |
| 2026-04-23 03:57 | 32.85638 | -116.66272 | 28313 ft | 416 kts | 22° |
| 2026-04-23 03:58 | 32.88325 | -116.64951 | 28747 ft | 419 kts | 22° |
| 2026-04-23 03:58 | 32.90999 | -116.63633 | 29184 ft | 422 kts | 22° |
| 2026-04-23 03:58 | 32.93726 | -116.62289 | 29609 ft | 426 kts | 22° |
| 2026-04-23 03:58 | 32.96474 | -116.60935 | 29994 ft | 431 kts | 22° |
| 2026-04-23 03:59 | 32.99261 | -116.59561 | 30396 ft | 434 kts | 22° |
| 2026-04-23 03:59 | 33.02065 | -116.58177 | 30820 ft | 437 kts | 22° |
| 2026-04-23 03:59 | 33.04869 | -116.56755 | 31252 ft | 440 kts | 23° |
| 2026-04-23 03:59 | 33.07679 | -116.55293 | 31687 ft | 441 kts | 24° |
| 2026-04-23 04:00 | 33.10488 | -116.53808 | 32115 ft | 443 kts | 24° |
| 2026-04-23 04:00 | 33.13305 | -116.52311 | 32559 ft | 443 kts | 24° |
| 2026-04-23 04:00 | 33.16125 | -116.50816 | 32916 ft | 443 kts | 24° |
| 2026-04-23 04:00 | 33.18935 | -116.49332 | 32997 ft | 438 kts | 24° |
| 2026-04-23 04:01 | 33.21675 | -116.47891 | 33008 ft | 423 kts | 23° |
| 2026-04-23 04:01 | 33.24326 | -116.46504 | 33008 ft | 408 kts | 23° |
| 2026-04-23 04:01 | 33.26879 | -116.45173 | 33007 ft | 396 kts | 23° |
| 2026-04-23 04:01 | 33.29386 | -116.43863 | 33010 ft | 390 kts | 23° |
| 2026-04-23 04:02 | 33.34315 | -116.41272 | 33009 ft | 385 kts | 23° |
| 2026-04-23 04:02 | 33.39055 | -116.38342 | 33010 ft | 384 kts | 37° |
| 2026-04-23 04:03 | 33.42702 | -116.33707 | 33010 ft | 385 kts | 54° |
| 2026-04-23 04:03 | 33.45843 | -116.28474 | 33001 ft | 387 kts | 54° |
| 2026-04-23 04:04 | 33.48996 | -116.23229 | 33005 ft | 387 kts | 54° |
| 2026-04-23 04:04 | 33.52128 | -116.17988 | 33019 ft | 386 kts | 54° |
| 2026-04-23 04:05 | 33.55225 | -116.12797 | 33022 ft | 384 kts | 54° |
| 2026-04-23 04:05 | 33.58332 | -116.07591 | 33026 ft | 383 kts | 54° |
| 2026-04-23 04:06 | 33.61694 | -116.02658 | 33023 ft | 382 kts | 43° |
| 2026-04-23 04:06 | 33.65541 | -115.98258 | 33010 ft | 382 kts | 43° |
| 2026-04-23 04:07 | 33.69384 | -115.93831 | 33002 ft | 383 kts | 44° |
| 2026-04-23 04:07 | 33.73237 | -115.89394 | 32984 ft | 384 kts | 43° |
| 2026-04-23 04:08 | 33.77104 | -115.84946 | 32981 ft | 386 kts | 44° |
| 2026-04-23 04:08 | 33.80973 | -115.80473 | 32996 ft | 386 kts | 44° |
| 2026-04-23 04:09 | 33.84820 | -115.76010 | 33000 ft | 386 kts | 44° |
| 2026-04-23 04:09 | 33.88684 | -115.71541 | 33007 ft | 386 kts | 44° |
| 2026-04-23 04:10 | 33.92543 | -115.67064 | 33010 ft | 385 kts | 44° |
| 2026-04-23 04:10 | 33.96400 | -115.62584 | 33014 ft | 384 kts | 44° |
| 2026-04-23 04:11 | 34.00250 | -115.58116 | 33012 ft | 384 kts | 44° |
| 2026-04-23 04:11 | 34.04097 | -115.53645 | 33005 ft | 384 kts | 44° |
| 2026-04-23 04:12 | 34.07943 | -115.49169 | 33004 ft | 384 kts | 44° |
| 2026-04-23 04:12 | 34.11788 | -115.44688 | 33000 ft | 384 kts | 44° |
| 2026-04-23 04:13 | 34.15596 | -115.40229 | 33001 ft | 384 kts | 44° |
| 2026-04-23 04:13 | 34.19581 | -115.35955 | 33005 ft | 383 kts | 32° |
| 2026-04-23 04:14 | 34.21925 | -115.34451 | 33006 ft | 382 kts | 21° |
| 2026-04-23 04:14 | 34.24460 | -115.33530 | 33007 ft | 380 kts | 10° |
| 2026-04-23 04:14 | 34.29681 | -115.32504 | 33001 ft | 380 kts | 9° |
| 2026-04-23 04:15 | 34.34912 | -115.31459 | 32995 ft | 380 kts | 9° |
| 2026-04-23 04:16 | 34.42749 | -115.29886 | 32993 ft | 381 kts | 9° |
| 2026-04-23 04:16 | 34.47945 | -115.28845 | 32991 ft | 381 kts | 9° |
| 2026-04-23 04:17 | 34.53174 | -115.27793 | 32990 ft | 381 kts | 9° |
| 2026-04-23 04:17 | 34.58424 | -115.26737 | 32992 ft | 382 kts | 9° |
| 2026-04-23 04:18 | 34.63674 | -115.25679 | 32994 ft | 383 kts | 9° |
| 2026-04-23 04:18 | 34.68934 | -115.24622 | 32998 ft | 383 kts | 9° |
| 2026-04-23 04:19 | 34.74191 | -115.23564 | 32999 ft | 383 kts | 9° |
| 2026-04-23 04:19 | 34.79440 | -115.22509 | 32999 ft | 382 kts | 9° |
| 2026-04-23 04:20 | 34.84694 | -115.21446 | 32998 ft | 382 kts | 9° |
| 2026-04-23 04:20 | 34.89946 | -115.20384 | 32997 ft | 382 kts | 9° |
| 2026-04-23 04:21 | 34.95192 | -115.19322 | 32988 ft | 383 kts | 9° |
| 2026-04-23 04:21 | 34.99563 | -115.18435 | 32981 ft | 383 kts | 9° |
| 2026-04-23 04:22 | 35.04820 | -115.17365 | 32982 ft | 383 kts | 9° |
| 2026-04-23 04:22 | 35.10092 | -115.16286 | 32991 ft | 384 kts | 9° |
| 2026-04-23 04:23 | 35.15366 | -115.15223 | 32983 ft | 384 kts | 9° |
| 2026-04-23 04:23 | 35.20648 | -115.14148 | 32996 ft | 385 kts | 9° |
| 2026-04-23 04:24 | 35.25935 | -115.13072 | 32995 ft | 385 kts | 9° |
| 2026-04-23 04:24 | 35.31192 | -115.11996 | 32983 ft | 386 kts | 9° |
| 2026-04-23 04:25 | 35.36483 | -115.10908 | 32994 ft | 386 kts | 9° |
| 2026-04-23 04:25 | 35.41782 | -115.09817 | 32995 ft | 386 kts | 9° |
| 2026-04-23 04:26 | 35.47077 | -115.08695 | 32987 ft | 386 kts | 14° |
| 2026-04-23 04:26 | 35.49611 | -115.07619 | 32989 ft | 386 kts | 25° |
| 2026-04-23 04:26 | 35.51919 | -115.05941 | 32981 ft | 386 kts | 37° |
| 2026-04-23 04:26 | 35.53902 | -115.03737 | 32988 ft | 385 kts | 48° |
| 2026-04-23 04:27 | 35.55689 | -115.01280 | 32986 ft | 385 kts | 48° |
| 2026-04-23 04:27 | 35.59278 | -114.96376 | 32995 ft | 386 kts | 48° |
| 2026-04-23 04:28 | 35.64659 | -114.89031 | 33000 ft | 385 kts | 48° |
| 2026-04-23 04:28 | 35.68215 | -114.84160 | 32995 ft | 386 kts | 48° |
| 2026-04-23 04:29 | 35.71811 | -114.79252 | 33002 ft | 385 kts | 47° |
| 2026-04-23 04:29 | 35.75396 | -114.74350 | 33009 ft | 384 kts | 48° |
| 2026-04-23 04:30 | 35.78962 | -114.69453 | 33018 ft | 383 kts | 48° |
| 2026-04-23 04:30 | 35.82529 | -114.64550 | 33014 ft | 383 kts | 48° |
| 2026-04-23 04:31 | 35.86061 | -114.59691 | 33013 ft | 383 kts | 48° |
| 2026-04-23 04:31 | 35.89615 | -114.54795 | 33006 ft | 383 kts | 48° |
| 2026-04-23 04:32 | 35.93171 | -114.49896 | 33007 ft | 383 kts | 48° |
| 2026-04-23 04:32 | 35.96722 | -114.44997 | 33008 ft | 383 kts | 48° |
| 2026-04-23 04:33 | 36.00270 | -114.40088 | 33008 ft | 383 kts | 48° |
| 2026-04-23 04:33 | 36.03813 | -114.35168 | 33009 ft | 383 kts | 48° |
| 2026-04-23 04:34 | 36.07395 | -114.30305 | 33010 ft | 382 kts | 42° |
| 2026-04-23 04:34 | 36.09486 | -114.28296 | 33012 ft | 381 kts | 31° |
| 2026-04-23 04:34 | 36.11839 | -114.26801 | 33008 ft | 381 kts | 22° |
| 2026-04-23 04:35 | 36.16703 | -114.24185 | 32990 ft | 382 kts | 23° |
| 2026-04-23 04:35 | 36.21573 | -114.21525 | 32983 ft | 383 kts | 23° |
| 2026-04-23 04:36 | 36.26457 | -114.18860 | 32981 ft | 384 kts | 23° |
| 2026-04-23 04:36 | 36.31353 | -114.16192 | 32983 ft | 384 kts | 23° |
| 2026-04-23 04:37 | 36.36253 | -114.13533 | 32997 ft | 384 kts | 23° |
| 2026-04-23 04:37 | 36.41148 | -114.10875 | 33003 ft | 384 kts | 23° |
| 2026-04-23 04:38 | 36.46031 | -114.08195 | 33005 ft | 383 kts | 24° |
| 2026-04-23 04:38 | 36.50879 | -114.05538 | 32996 ft | 383 kts | 23° |
| 2026-04-23 04:39 | 36.55548 | -114.02977 | 32995 ft | 384 kts | 24° |
| 2026-04-23 04:39 | 36.60438 | -114.00284 | 32987 ft | 384 kts | 24° |
| 2026-04-23 04:40 | 36.65330 | -113.97600 | 32983 ft | 384 kts | 23° |
| 2026-04-23 04:40 | 36.70223 | -113.94918 | 32980 ft | 385 kts | 23° |
| 2026-04-23 04:41 | 36.75125 | -113.92220 | 32994 ft | 385 kts | 24° |
| 2026-04-23 04:41 | 36.80020 | -113.89511 | 32996 ft | 385 kts | 24° |
| 2026-04-23 04:42 | 36.84916 | -113.86801 | 32999 ft | 385 kts | 24° |
| 2026-04-23 04:42 | 36.89818 | -113.84088 | 32996 ft | 385 kts | 24° |
| 2026-04-23 04:43 | 36.94711 | -113.81375 | 33007 ft | 384 kts | 24° |
| 2026-04-23 04:43 | 36.99593 | -113.78665 | 33010 ft | 384 kts | 24° |
| 2026-04-23 04:44 | 37.04472 | -113.75953 | 33001 ft | 384 kts | 24° |
| 2026-04-23 04:44 | 37.09361 | -113.73238 | 32999 ft | 384 kts | 24° |
| 2026-04-23 04:45 | 37.14243 | -113.70517 | 33002 ft | 384 kts | 24° |
| 2026-04-23 04:45 | 37.19094 | -113.67801 | 33004 ft | 384 kts | 24° |
| 2026-04-23 04:46 | 37.24003 | -113.65051 | 32998 ft | 384 kts | 24° |
| 2026-04-23 04:46 | 37.28885 | -113.62327 | 32992 ft | 384 kts | 24° |
| 2026-04-23 04:47 | 37.33774 | -113.59590 | 32988 ft | 385 kts | 24° |
| 2026-04-23 04:47 | 37.38645 | -113.56850 | 32980 ft | 386 kts | 24° |
| 2026-04-23 04:48 | 37.43560 | -113.54080 | 32991 ft | 387 kts | 24° |
| 2026-04-23 04:48 | 37.48478 | -113.51304 | 32986 ft | 388 kts | 24° |
| 2026-04-23 04:49 | 37.53407 | -113.48532 | 32996 ft | 388 kts | 24° |
| 2026-04-23 04:49 | 37.58350 | -113.45739 | 32996 ft | 389 kts | 24° |
| 2026-04-23 04:50 | 37.63287 | -113.42950 | 33002 ft | 388 kts | 24° |
| 2026-04-23 04:50 | 37.68216 | -113.40159 | 33002 ft | 388 kts | 24° |
| 2026-04-23 04:51 | 37.73146 | -113.37364 | 33002 ft | 388 kts | 24° |
| 2026-04-23 04:51 | 37.78075 | -113.34560 | 33006 ft | 388 kts | 24° |
| 2026-04-23 04:52 | 37.82960 | -113.31777 | 33010 ft | 387 kts | 24° |
| 2026-04-23 04:52 | 37.87871 | -113.28981 | 33010 ft | 387 kts | 24° |
| 2026-04-23 04:53 | 37.92814 | -113.26166 | 33009 ft | 386 kts | 24° |
| 2026-04-23 04:53 | 37.97683 | -113.23379 | 33007 ft | 386 kts | 24° |
| 2026-04-23 04:54 | 38.02580 | -113.20576 | 33005 ft | 386 kts | 24° |
| 2026-04-23 04:54 | 38.07476 | -113.17772 | 33001 ft | 386 kts | 24° |
| 2026-04-23 04:55 | 38.12374 | -113.14962 | 32997 ft | 386 kts | 24° |
| 2026-04-23 04:55 | 38.17274 | -113.12150 | 32998 ft | 386 kts | 24° |
| 2026-04-23 04:56 | 38.22179 | -113.09330 | 33002 ft | 386 kts | 24° |
| 2026-04-23 04:56 | 38.27071 | -113.06499 | 33001 ft | 386 kts | 24° |
| 2026-04-23 04:57 | 38.31945 | -113.03681 | 33001 ft | 385 kts | 24° |
| 2026-04-23 04:57 | 38.36839 | -113.00859 | 33000 ft | 385 kts | 24° |
| 2026-04-23 04:58 | 38.41774 | -112.98193 | 32999 ft | 385 kts | 22° |
| 2026-04-23 04:58 | 38.46733 | -112.95611 | 32998 ft | 385 kts | 22° |
| 2026-04-23 04:59 | 38.51684 | -112.93005 | 32997 ft | 385 kts | 22° |
| 2026-04-23 04:59 | 38.56626 | -112.90362 | 32996 ft | 385 kts | 22° |
| 2026-04-23 05:00 | 38.61541 | -112.87731 | 32995 ft | 385 kts | 22° |
| 2026-04-23 05:00 | 38.66472 | -112.85081 | 32994 ft | 385 kts | 22° |
| 2026-04-23 05:01 | 38.71424 | -112.82419 | 32993 ft | 385 kts | 22° |
| 2026-04-23 05:01 | 38.76368 | -112.79764 | 32997 ft | 385 kts | 22° |
| 2026-04-23 05:02 | 38.81317 | -112.77102 | 32998 ft | 385 kts | 22° |
| 2026-04-23 05:02 | 38.86227 | -112.74461 | 33000 ft | 385 kts | 22° |
| 2026-04-23 05:03 | 38.91170 | -112.71795 | 33002 ft | 385 kts | 22° |
| 2026-04-23 05:03 | 38.96138 | -112.69110 | 32753 ft | 405 kts | 22° |
| 2026-04-23 05:04 | 38.98750 | -112.67696 | 32340 ft | 406 kts | 22° |
| 2026-04-23 05:04 | 39.01337 | -112.66292 | 31915 ft | 403 kts | 22° |
| 2026-04-23 05:04 | 39.03914 | -112.64891 | 31486 ft | 401 kts | 22° |
| 2026-04-23 05:04 | 39.06483 | -112.63494 | 31064 ft | 399 kts | 22° |
| 2026-04-23 05:05 | 39.09036 | -112.62106 | 30612 ft | 398 kts | 22° |
| 2026-04-23 05:05 | 39.11586 | -112.60722 | 30192 ft | 396 kts | 22° |
| 2026-04-23 05:05 | 39.14118 | -112.59351 | 29762 ft | 395 kts | 22° |
| 2026-04-23 05:05 | 39.15736 | -112.58475 | 29495 ft | 397 kts | 22° |
| 2026-04-23 05:06 | 39.19092 | -112.56653 | 28890 ft | 396 kts | 22° |
| 2026-04-23 05:06 | 39.21619 | -112.55279 | 28450 ft | 394 kts | 22° |
| 2026-04-23 05:06 | 39.23300 | -112.54365 | 28165 ft | 393 kts | 22° |
| 2026-04-23 05:06 | 39.25815 | -112.52993 | 27727 ft | 392 kts | 22° |
| 2026-04-23 05:07 | 39.28316 | -112.51622 | 27294 ft | 390 kts | 22° |
| 2026-04-23 05:07 | 39.31615 | -112.49803 | 26704 ft | 388 kts | 23° |
| 2026-04-23 05:07 | 39.33288 | -112.48860 | 26391 ft | 387 kts | 23° |
| 2026-04-23 05:07 | 39.35756 | -112.47447 | 25935 ft | 386 kts | 24° |
| 2026-04-23 05:08 | 39.38172 | -112.46046 | 25462 ft | 384 kts | 24° |
| 2026-04-23 05:08 | 39.40604 | -112.44634 | 24989 ft | 383 kts | 24° |
| 2026-04-23 05:08 | 39.43031 | -112.43226 | 24496 ft | 382 kts | 24° |
| 2026-04-23 05:08 | 39.45454 | -112.41824 | 23998 ft | 380 kts | 24° |
| 2026-04-23 05:09 | 39.47899 | -112.40412 | 23495 ft | 379 kts | 24° |
| 2026-04-23 05:09 | 39.50266 | -112.39048 | 23012 ft | 377 kts | 24° |
| 2026-04-23 05:09 | 39.52656 | -112.37673 | 22530 ft | 376 kts | 24° |
| 2026-04-23 05:09 | 39.55040 | -112.36298 | 22056 ft | 374 kts | 24° |
| 2026-04-23 05:10 | 39.57417 | -112.34924 | 21586 ft | 372 kts | 24° |
| 2026-04-23 05:10 | 39.59771 | -112.33562 | 21120 ft | 370 kts | 24° |
| 2026-04-23 05:10 | 39.62115 | -112.32208 | 20663 ft | 368 kts | 24° |
| 2026-04-23 05:10 | 39.64443 | -112.30869 | 20204 ft | 365 kts | 24° |
| 2026-04-23 05:11 | 39.66767 | -112.29535 | 19740 ft | 363 kts | 24° |
| 2026-04-23 05:11 | 39.69069 | -112.28210 | 19300 ft | 361 kts | 24° |
| 2026-04-23 05:11 | 39.71363 | -112.26884 | 18852 ft | 359 kts | 24° |
| 2026-04-23 05:11 | 39.73640 | -112.25560 | 18411 ft | 357 kts | 24° |
| 2026-04-23 05:12 | 39.75876 | -112.24259 | 17980 ft | 355 kts | 24° |
| 2026-04-23 05:12 | 39.78131 | -112.22949 | 17485 ft | 355 kts | 24° |
| 2026-04-23 05:12 | 39.80409 | -112.21630 | 17041 ft | 353 kts | 24° |
| 2026-04-23 05:12 | 39.82399 | -112.20477 | 16664 ft | 351 kts | 24° |
| 2026-04-23 05:13 | 39.84595 | -112.19198 | 16252 ft | 349 kts | 24° |
| 2026-04-23 05:13 | 39.86803 | -112.17912 | 15841 ft | 347 kts | 24° |
| 2026-04-23 05:13 | 39.89002 | -112.16631 | 15429 ft | 345 kts | 24° |
| 2026-04-23 05:14 | 39.93375 | -112.14081 | 14615 ft | 342 kts | 24° |
| 2026-04-23 05:14 | 39.95539 | -112.12821 | 14215 ft | 340 kts | 24° |
| 2026-04-23 05:14 | 39.97719 | -112.11662 | 13817 ft | 337 kts | 17° |
| 2026-04-23 05:14 | 39.99935 | -112.10791 | 13716 ft | 326 kts | 16° |
| 2026-04-23 05:15 | 40.02077 | -112.09938 | 13568 ft | 318 kts | 17° |
| 2026-04-23 05:15 | 40.04167 | -112.09105 | 13419 ft | 310 kts | 17° |
| 2026-04-23 05:15 | 40.06199 | -112.08294 | 13273 ft | 302 kts | 17° |
| 2026-04-23 05:15 | 40.08186 | -112.07499 | 13129 ft | 295 kts | 17° |
| 2026-04-23 05:16 | 40.10124 | -112.06723 | 12992 ft | 288 kts | 17° |
| 2026-04-23 05:16 | 40.12032 | -112.05958 | 12853 ft | 285 kts | 17° |
| 2026-04-23 05:16 | 40.13922 | -112.05198 | 12716 ft | 284 kts | 17° |
| 2026-04-23 05:16 | 40.15802 | -112.04441 | 12582 ft | 283 kts | 17° |
| 2026-04-23 05:17 | 40.17687 | -112.03682 | 12444 ft | 282 kts | 17° |
| 2026-04-23 05:17 | 40.19559 | -112.02934 | 12309 ft | 282 kts | 16° |
| 2026-04-23 05:17 | 40.21416 | -112.02196 | 12176 ft | 281 kts | 16° |
| 2026-04-23 05:17 | 40.23283 | -112.01452 | 12037 ft | 280 kts | 17° |
| 2026-04-23 05:18 | 40.25149 | -112.00708 | 11913 ft | 280 kts | 17° |
| 2026-04-23 05:18 | 40.27006 | -111.99968 | 11771 ft | 279 kts | 17° |
| 2026-04-23 05:18 | 40.28868 | -111.99228 | 11643 ft | 279 kts | 17° |
| 2026-04-23 05:18 | 40.30719 | -111.98483 | 11504 ft | 278 kts | 17° |
| 2026-04-23 05:19 | 40.32566 | -111.97733 | 11370 ft | 278 kts | 17° |
| 2026-04-23 05:19 | 40.34412 | -111.96987 | 11239 ft | 277 kts | 17° |
| 2026-04-23 05:19 | 40.36259 | -111.96243 | 11124 ft | 277 kts | 17° |
| 2026-04-23 05:19 | 40.38095 | -111.95502 | 10993 ft | 276 kts | 17° |
| 2026-04-23 05:20 | 40.39960 | -111.94910 | 10809 ft | 276 kts | 4° |
| 2026-04-23 05:20 | 40.41852 | -111.94852 | 10749 ft | 266 kts | 0° |
| 2026-04-23 05:20 | 40.43612 | -111.94794 | 10934 ft | 245 kts | 1° |
| 2026-04-23 05:20 | 40.45270 | -111.94732 | 10857 ft | 231 kts | 1° |
| 2026-04-23 05:21 | 40.46829 | -111.94673 | 10698 ft | 219 kts | 1° |
| 2026-04-23 05:21 | 40.48314 | -111.94620 | 10545 ft | 209 kts | 1° |
| 2026-04-23 05:21 | 40.49735 | -111.94523 | 10390 ft | 201 kts | 7° |
| 2026-04-23 05:21 | 40.51101 | -111.94387 | 10241 ft | 193 kts | 359° |
| 2026-04-23 05:22 | 40.52425 | -111.94450 | 10091 ft | 188 kts | 355° |
| 2026-04-23 05:22 | 40.53692 | -111.94574 | 9935 ft | 182 kts | 354° |
| 2026-04-23 05:22 | 40.54941 | -111.94712 | 9789 ft | 177 kts | 354° |
| 2026-04-23 05:22 | 40.56159 | -111.94851 | 9636 ft | 170 kts | 354° |
| 2026-04-23 05:23 | 40.57308 | -111.94982 | 9486 ft | 166 kts | 354° |
| 2026-04-23 05:23 | 40.58453 | -111.95114 | 9337 ft | 165 kts | 354° |
| 2026-04-23 05:23 | 40.59591 | -111.95246 | 9187 ft | 164 kts | 354° |
| 2026-04-23 05:23 | 40.60724 | -111.95376 | 9051 ft | 162 kts | 354° |
| 2026-04-23 05:24 | 40.61853 | -111.95506 | 8890 ft | 162 kts | 354° |
| 2026-04-23 05:24 | 40.62979 | -111.95636 | 8753 ft | 162 kts | 354° |
| 2026-04-23 05:24 | 40.64076 | -111.95763 | 8601 ft | 161 kts | 354° |
| 2026-04-23 05:24 | 40.65200 | -111.95878 | 8308 ft | 165 kts | 356° |
| 2026-04-23 05:25 | 40.66404 | -111.95941 | 7420 ft | 183 kts | 356° |
| 2026-04-23 05:25 | 40.67718 | -111.96024 | 6363 ft | 196 kts | 356° |
| 2026-04-23 05:25 | 40.69070 | -111.96149 | 5849 ft | 182 kts | 353° |
| 2026-04-23 05:25 | 40.70254 | -111.96354 | 5696 ft | 165 kts | 351° |
| 2026-04-23 05:26 | 40.71365 | -111.96561 | 5491 ft | 158 kts | 351° |
| 2026-04-23 05:26 | 40.72441 | -111.96747 | 5265 ft | 155 kts | 353° |
| 2026-04-23 05:26 | 40.73511 | -111.96858 | 5107 ft | 153 kts | 355° |
| 2026-04-23 05:26 | 40.74578 | -111.96966 | 4825 ft | 153 kts | 354° |
| 2026-04-23 05:27 | 40.75628 | -111.97087 | 4641 ft | 151 kts | 353° |
| 2026-04-23 05:27 | 40.76681 | -111.97221 | 4548 ft | 153 kts | 354° |
| 2026-04-23 05:27 | 40.77722 | -111.97344 | 4259 ft | 148 kts | 355° |
| 2026-04-23 05:27 | 40.78720 | -111.97462 | 4235 ft | 134 kts | 354° |
| 2026-04-23 05:28 | 40.79338 | -111.97541 | 4230 ft | 39 kts | 356° |
| 2026-04-23 05:28 | 40.79407 | -111.97560 | 4229 ft | 2 kts | 328° |
| 2026-04-23 05:28 | 40.79564 | -111.97686 | 4229 ft | 15 kts | 331° |
| 2026-04-23 05:28 | 40.79570 | -111.97691 | 4229 ft | 0 kts | 329° |
| 2026-04-23 05:30 | 40.79577 | -111.97697 | 4229 ft | 2 kts | 327° |
| 2026-04-23 05:31 | 40.79588 | -111.97710 | 4230 ft | 3 kts | 308° |
| 2026-04-23 05:31 | 40.79590 | -111.97736 | 4230 ft | 3 kts | 259° |
| 2026-04-23 05:31 | 40.79574 | -111.97758 | 4230 ft | 4 kts | 208° |
| 2026-04-23 05:31 | 40.79544 | -111.97768 | 4230 ft | 6 kts | 188° |
| 2026-04-23 05:32 | 40.79499 | -111.97769 | 4230 ft | 8 kts | 179° |
| 2026-04-23 05:32 | 40.79439 | -111.97762 | 4231 ft | 10 kts | 173° |
| 2026-04-23 05:32 | 40.79367 | -111.97751 | 4231 ft | 11 kts | 176° |
| 2026-04-23 05:32 | 40.79304 | -111.97754 | 4231 ft | 0 kts | 197° |
| 2026-04-23 05:33 | 40.79298 | -111.97761 | 4231 ft | 2 kts | 219° |
| 2026-04-23 05:33 | 40.79287 | -111.97782 | 4231 ft | 4 kts | 241° |
| 2026-04-23 05:33 | 40.79269 | -111.97818 | 4231 ft | 6 kts | 224° |
| 2026-04-23 05:33 | 40.79229 | -111.97831 | 4231 ft | 7 kts | 182° |
| 2026-04-23 05:34 | 40.79174 | -111.97830 | 4231 ft | 9 kts | 176° |
| 2026-04-23 05:34 | 40.79115 | -111.97825 | 4231 ft | 5 kts | 175° |
| 2026-04-23 05:34 | 40.79070 | -111.97818 | 4231 ft | 8 kts | 174° |
| 2026-04-23 05:34 | 40.79010 | -111.97810 | 4231 ft | 10 kts | 175° |
| 2026-04-23 05:35 | 40.78936 | -111.97802 | 4231 ft | 12 kts | 175° |
| 2026-04-23 05:35 | 40.78849 | -111.97793 | 4231 ft | 13 kts | 186° |
| 2026-04-23 05:35 | 40.78819 | -111.97871 | 4231 ft | 10 kts | 224° |
| 2026-04-23 05:35 | 40.78756 | -111.97927 | 4231 ft | 12 kts | 207° |
| 2026-04-23 05:36 | 40.78736 | -111.97930 | 4231 ft | 0 kts | 179° |
| 2026-04-23 05:36 | 40.78705 | -111.97949 | 4230 ft | 0 kts | 204° |
| 2026-04-23 05:36 | 40.78700 | -111.97950 | 4231 ft | 1 kts | 191° |
| 2026-04-23 05:37 | 40.78697 | -111.97949 | 4231 ft | 0 kts | 180° |
| 2026-04-23 05:37 | 40.78677 | -111.97936 | 4231 ft | 5 kts | 146° |
| 2026-04-23 05:37 | 40.78659 | -111.97931 | 4231 ft | 0 kts | 175° |
| 2026-04-23 05:38 | 40.78655 | -111.97930 | 4231 ft | 0 kts | 174° |